Time;durP1;ratioP1;P1;durP2;ratioP2;P2;SDS_P1;SDS_P2;PMS_P1;PMS_P2;Temp;Humidity;BMP_temperature;BMP_pressure;BME280_temperature;BME280_humidity;BME280_pressure;Samples;Min_cycle;Max_cycle;Signal;HPM_P1;HPM_P2
2021/03/30 00:00:18;;;;;;;9.50;7.30;;;;;;;6.87;68.54;97280.41;5054342;28;20033;-67
2021/03/30 00:02:44;;;;;;;11.02;8.73;;;;;;;6.85;68.49;97280.47;5054697;28;20031;-67
2021/03/30 00:05:10;;;;;;;9.27;7.53;;;;;;;6.82;68.68;97280.63;5057368;28;20557;-68
2021/03/30 00:07:35;;;;;;;9.07;7.72;;;;;;;6.84;68.43;97281.38;5053368;28;20435;-67
2021/03/30 00:10:03;;;;;;;9.95;8.50;;;;;;;6.74;68.60;97282.78;5055132;28;20112;-67
2021/03/30 00:12:29;;;;;;;10.52;8.68;;;;;;;6.71;68.86;97280.31;5054825;28;20031;-67
2021/03/30 00:14:55;;;;;;;10.15;7.47;;;;;;;6.73;69.06;97281.09;5052688;28;20111;-67
2021/03/30 00:17:20;;;;;;;12.18;10.25;;;;;;;6.70;69.15;97274.25;5052054;28;20037;-67
2021/03/30 00:19:46;;;;;;;13.68;10.07;;;;;;;6.71;68.88;97281.19;5050421;28;20033;-67
2021/03/30 00:22:11;;;;;;;13.25;11.27;;;;;;;6.68;68.60;97280.47;5067443;28;20033;-67
2021/03/30 00:24:37;;;;;;;15.80;11.00;;;;;;;6.58;69.36;97282.72;5051142;28;20025;-67
2021/03/30 00:27:03;;;;;;;17.05;11.57;;;;;;;6.59;69.28;97280.03;5052953;28;20130;-67
2021/03/30 00:29:28;;;;;;;19.00;12.43;;;;;;;6.59;69.26;97282.66;5052440;28;20025;-66
2021/03/30 00:31:54;;;;;;;13.77;11.43;;;;;;;6.57;68.80;97274.03;5055812;28;20108;-67
2021/03/30 00:34:19;;;;;;;14.15;12.20;;;;;;;6.50;69.24;97277.88;5050242;28;20035;-67
2021/03/30 00:36:45;;;;;;;15.32;11.27;;;;;;;6.51;69.32;97274.31;5053532;28;20116;-66
2021/03/30 00:39:10;;;;;;;14.13;10.50;;;;;;;6.50;68.74;97275.25;5054061;28;20021;-67
2021/03/30 00:41:41;;;;;;;15.85;10.98;;;;;;;6.55;68.69;97275.88;5056999;28;20091;-66
2021/03/30 00:44:11;;;;;;;15.38;11.25;;;;;;;6.51;68.97;97273.50;5052714;28;20450;-67
2021/03/30 00:46:39;;;;;;;13.40;11.00;;;;;;;6.52;68.95;97268.19;5053151;28;20013;-67
2021/03/30 00:49:05;;;;;;;15.55;11.45;;;;;;;6.53;69.02;97272.50;5050856;28;20099;-67
2021/03/30 00:51:30;;;;;;;15.32;11.50;;;;;;;6.48;68.96;97273.66;5049287;28;20055;-67
2021/03/30 00:53:57;;;;;;;15.63;11.18;;;;;;;6.46;69.29;97271.09;5051272;28;20048;-67
2021/03/30 00:56:23;;;;;;;13.75;10.88;;;;;;;6.42;69.00;97275.66;5051778;28;20025;-67
2021/03/30 00:58:49;;;;;;;15.63;10.20;;;;;;;6.38;68.88;97270.66;5050039;28;20444;-67
2021/03/30 01:01:14;;;;;;;17.60;9.52;;;;;;;6.37;69.15;97272.41;5047887;28;20108;-67
2021/03/30 01:03:40;;;;;;;14.30;9.25;;;;;;;6.35;69.53;97268.19;5054194;28;20075;-67
2021/03/30 01:06:06;;;;;;;14.70;10.18;;;;;;;6.29;69.92;97270.16;5049353;28;20358;-67
2021/03/30 01:08:46;;;;;;;11.32;8.77;;;;;;;6.26;69.91;97265.09;5052659;28;20373;-67
2021/03/30 01:11:33;;;;;;;10.73;7.70;;;;;;;6.24;70.23;97271.34;5053552;28;20548;-67
2021/03/30 01:14:17;;;;;;;10.07;7.03;;;;;;;6.23;70.55;97264.44;5047018;28;20056;-67
2021/03/30 01:16:50;;;;;;;8.82;7.47;;;;;;;6.19;70.66;97271.56;5051075;28;20036;-67
2021/03/30 01:19:36;;;;;;;13.00;7.25;;;;;;;6.18;70.80;97263.78;5052851;28;20150;-67
2021/03/30 01:22:30;;;;;;;9.77;6.70;;;;;;;6.14;70.78;97258.72;5056322;28;20027;-67
2021/03/30 01:25:00;;;;;;;7.57;6.38;;;;;;;6.08;70.40;97266.00;5051853;28;20566;-67
2021/03/30 01:27:50;;;;;;;7.82;6.90;;;;;;;6.07;71.30;97261.69;5051382;28;20021;-66
2021/03/30 01:30:19;;;;;;;9.00;6.63;;;;;;;6.01;71.13;97258.47;5051446;28;20392;-66
2021/03/30 01:33:08;;;;;;;9.68;6.15;;;;;;;5.98;71.80;97261.19;5053352;28;20024;-67
2021/03/30 01:35:36;;;;;;;6.97;6.28;;;;;;;5.95;71.27;97261.34;5047093;28;20017;-66
2021/03/30 01:38:02;;;;;;;6.57;5.63;;;;;;;5.94;71.39;97258.81;5053236;28;20033;-66
2021/03/30 01:40:31;;;;;;;6.68;5.70;;;;;;;5.90;71.76;97268.59;5050699;28;20025;-67
2021/03/30 01:42:58;;;;;;;9.48;5.93;;;;;;;5.89;71.74;97261.66;5047000;28;20079;-67
2021/03/30 01:45:25;;;;;;;7.38;5.20;;;;;;;5.90;71.38;97252.91;5049607;28;20020;-66
2021/03/30 01:47:52;;;;;;;5.82;5.18;;;;;;;5.92;71.47;97250.19;5053463;28;20871;-66
2021/03/30 01:50:18;;;;;;;8.90;6.10;;;;;;;5.95;71.64;97248.28;5052991;28;20036;-66
2021/03/30 01:52:45;;;;;;;6.22;5.32;;;;;;;5.94;71.66;97251.81;5044951;28;20034;-66
2021/03/30 01:55:15;;;;;;;6.97;5.45;;;;;;;5.91;72.26;97248.50;5056465;28;20035;-66
2021/03/30 01:57:46;;;;;;;7.10;5.50;;;;;;;5.85;71.89;97254.88;5053200;28;20453;-66
2021/03/30 02:00:13;;;;;;;7.25;5.25;;;;;;;5.81;72.34;97243.72;5055417;28;20485;-66
2021/03/30 02:02:45;;;;;;;6.78;5.20;;;;;;;5.83;71.70;97241.03;5052833;28;20021;-66
2021/03/30 02:05:13;;;;;;;6.80;5.30;;;;;;;5.80;72.12;97246.41;5048202;28;20082;-65
2021/03/30 02:07:41;;;;;;;8.10;5.95;;;;;;;5.67;72.81;97239.19;5052255;28;20067;-66
2021/03/30 02:10:12;;;;;;;6.60;5.45;;;;;;;5.69;72.69;97239.94;5057622;28;20051;-66
2021/03/30 02:12:43;;;;;;;5.50;5.07;;;;;;;5.73;72.72;97238.00;5056314;28;20440;-66
2021/03/30 02:15:14;;;;;;;6.07;5.57;;;;;;;5.73;72.45;97236.25;5054135;28;20103;-66
2021/03/30 02:17:46;;;;;;;7.20;5.30;;;;;;;5.77;72.20;97236.09;5056891;28;20021;-67
2021/03/30 02:20:22;;;;;;;7.65;5.30;;;;;;;5.76;72.09;97239.63;5053887;28;20029;-66
2021/03/30 02:22:49;;;;;;;7.63;5.00;;;;;;;5.72;72.15;97234.56;5054351;28;20036;-66
2021/03/30 02:25:17;;;;;;;5.78;5.22;;;;;;;5.76;71.66;97230.06;5056205;28;20021;-66
2021/03/30 02:27:45;;;;;;;7.18;5.28;;;;;;;5.79;71.33;97226.41;5055741;28;20079;-66
2021/03/30 02:30:13;;;;;;;5.60;5.10;;;;;;;5.81;71.74;97221.97;5057214;28;20044;-66
2021/03/30 02:32:41;;;;;;;7.03;5.22;;;;;;;5.76;71.57;97230.06;5057303;28;20021;-66
2021/03/30 02:35:09;;;;;;;6.75;5.32;;;;;;;5.74;72.23;97227.50;5052895;28;20029;-66
2021/03/30 02:37:36;;;;;;;7.55;5.10;;;;;;;5.70;72.19;97220.72;5055028;28;20024;-67
2021/03/30 02:40:05;;;;;;;5.68;4.90;;;;;;;5.66;72.48;97221.81;5056021;28;20124;-66
2021/03/30 02:42:31;;;;;;;5.30;4.80;;;;;;;5.67;72.21;97218.28;5055948;28;20071;-66
2021/03/30 02:44:59;;;;;;;6.90;5.13;;;;;;;5.70;71.87;97223.34;5057698;28;20033;-67
2021/03/30 02:47:25;;;;;;;7.85;4.82;;;;;;;5.61;72.83;97221.16;5052762;28;20017;-66
2021/03/30 02:49:51;;;;;;;5.75;5.13;;;;;;;5.54;72.95;97215.41;5052954;28;20025;-67
2021/03/30 02:52:18;;;;;;;6.18;4.78;;;;;;;5.52;73.05;97219.00;5058697;28;20013;-67
2021/03/30 02:54:45;;;;;;;7.55;5.05;;;;;;;5.52;72.78;97213.78;5053717;28;20370;-67
2021/03/30 02:57:13;;;;;;;7.93;5.03;;;;;;;5.52;72.67;97214.59;5052728;28;20052;-66
2021/03/30 02:59:40;;;;;;;5.25;4.75;;;;;;;5.51;73.01;97214.69;5053665;28;20048;-66
2021/03/30 03:02:06;;;;;;;14.65;5.10;;;;;;;5.51;73.72;97217.31;5046598;28;20040;-66
2021/03/30 03:04:31;;;;;;;10.38;5.18;;;;;;;5.50;72.92;97206.00;5054946;28;20029;-67
2021/03/30 03:07:00;;;;;;;4.85;4.35;;;;;;;5.52;72.95;97205.94;5052907;28;20021;-66
2021/03/30 03:09:26;;;;;;;5.53;5.03;;;;;;;5.41;74.01;97203.81;5057024;28;20020;-66
2021/03/30 03:11:52;;;;;;;10.25;5.03;;;;;;;5.35;74.02;97209.34;5052022;28;20079;-66
2021/03/30 03:14:19;;;;;;;10.23;5.32;;;;;;;5.30;73.28;97213.03;5051853;28;20025;-67
2021/03/30 03:16:46;;;;;;;6.35;5.03;;;;;;;5.29;73.65;97200.84;5052710;28;20543;-67
2021/03/30 03:19:13;;;;;;;5.40;4.90;;;;;;;5.33;73.99;97211.19;5053407;28;20033;-66
2021/03/30 03:21:39;;;;;;;6.13;4.60;;;;;;;5.29;73.49;97205.25;5050559;28;20025;-66
2021/03/30 03:24:09;;;;;;;9.25;5.45;;;;;;;5.23;74.17;97205.56;5053122;28;20026;-67
2021/03/30 03:26:35;;;;;;;5.65;5.07;;;;;;;5.23;74.56;97208.16;5054023;28;20045;-67
2021/03/30 03:29:01;;;;;;;8.05;5.75;;;;;;;5.24;74.04;97208.06;5054609;28;20056;-67
2021/03/30 03:31:29;;;;;;;7.90;7.07;;;;;;;5.19;74.46;97206.59;5049444;28;20032;-67
2021/03/30 03:34:01;;;;;;;13.88;12.45;;;;;;;5.18;74.55;97202.28;5049730;28;20488;-67
2021/03/30 03:36:38;;;;;;;15.57;14.07;;;;;;;5.19;74.19;97198.75;5052034;28;20515;-67
2021/03/30 03:39:06;;;;;;;9.23;8.43;;;;;;;5.21;74.19;97205.59;5051394;28;20041;-67
2021/03/30 03:41:32;;;;;;;7.03;6.38;;;;;;;5.20;73.75;97195.25;5072232;28;20037;-67
2021/03/30 03:43:57;;;;;;;6.47;5.88;;;;;;;5.15;74.36;97208.50;5051974;28;20076;-67
2021/03/30 03:46:23;;;;;;;6.60;6.05;;;;;;;5.10;74.58;97200.88;5056275;28;20036;-67
2021/03/30 03:48:49;;;;;;;7.05;6.45;;;;;;;5.04;75.10;97201.19;5055868;28;20473;-67
2021/03/30 03:51:15;;;;;;;7.43;6.40;;;;;;;5.03;74.92;97204.69;5053403;28;20032;-67
2021/03/30 03:53:41;;;;;;;7.88;5.70;;;;;;;5.00;75.24;97205.69;5051804;28;20025;-67
2021/03/30 03:56:08;;;;;;;6.80;6.25;;;;;;;5.00;76.14;97207.47;5054414;28;20035;-67
2021/03/30 03:58:39;;;;;;;10.43;5.63;;;;;;;4.94;75.79;97198.13;5051962;28;20032;-67
2021/03/30 04:01:09;;;;;;;13.68;6.28;;;;;;;4.94;74.98;97203.34;5057577;28;20033;-67
2021/03/30 04:03:46;;;;;;;7.40;5.78;;;;;;;4.95;75.27;97202.44;5049769;28;20036;-67
2021/03/30 04:06:18;;;;;;;11.82;6.32;;;;;;;5.01;74.62;97209.97;5054742;28;20029;-66
2021/03/30 04:08:48;;;;;;;6.10;5.50;;;;;;;5.02;74.34;97205.63;5050138;28;20044;-67
2021/03/30 04:11:16;;;;;;;15.80;5.80;;;;;;;4.99;74.79;97208.38;5053753;28;20097;-67
2021/03/30 04:13:46;;;;;;;7.55;5.95;;;;;;;4.97;75.30;97199.75;5051999;28;20096;-67
2021/03/30 04:16:13;;;;;;;7.47;5.50;;;;;;;4.93;74.82;97203.41;5054220;28;20106;-67
2021/03/30 04:18:41;;;;;;;6.40;5.80;;;;;;;4.85;75.15;97207.22;5052150;28;20104;-67
2021/03/30 04:21:21;;;;;;;7.38;5.50;;;;;;;4.84;75.79;97205.53;5054896;28;20104;-67
2021/03/30 04:23:49;;;;;;;7.93;5.60;;;;;;;4.80;75.95;97205.72;5054018;28;20067;-67
2021/03/30 04:26:14;;;;;;;6.13;5.63;;;;;;;4.78;75.54;97210.19;5050673;28;20052;-66
2021/03/30 04:28:40;;;;;;;8.68;6.15;;;;;;;4.80;75.22;97214.41;5053271;28;20040;-66
2021/03/30 04:31:05;;;;;;;5.72;5.18;;;;;;;4.81;75.71;97210.03;5055568;28;20021;-66
2021/03/30 04:33:31;;;;;;;7.40;5.82;;;;;;;4.81;75.30;97213.50;5051723;28;20036;-66
2021/03/30 04:35:57;;;;;;;9.60;6.65;;;;;;;4.83;75.34;97218.63;5051021;28;20036;-67
2021/03/30 04:38:23;;;;;;;10.70;6.38;;;;;;;4.77;76.09;97204.13;5054283;28;20043;-66
2021/03/30 04:40:54;;;;;;;6.72;5.78;;;;;;;4.74;75.96;97209.47;5054733;28;20037;-67
2021/03/30 04:43:24;;;;;;;12.45;6.35;;;;;;;4.75;76.04;97210.31;5054067;28;20080;-67
2021/03/30 04:45:50;;;;;;;9.20;6.22;;;;;;;4.68;76.42;97210.59;5052924;28;20073;-67
2021/03/30 04:48:16;;;;;;;10.25;6.60;;;;;;;4.68;76.28;97217.56;5053539;28;20064;-66
2021/03/30 04:50:43;;;;;;;10.35;6.32;;;;;;;4.69;76.36;97220.13;5048581;28;20033;-67
2021/03/30 04:53:09;;;;;;;8.93;6.47;;;;;;;4.69;76.45;97221.88;5051610;28;20025;-66
2021/03/30 04:55:35;;;;;;;12.20;7.45;;;;;;;4.70;76.00;97228.78;5045849;28;20060;-67
2021/03/30 04:58:00;;;;;;;12.07;7.93;;;;;;;4.68;75.92;97228.00;5050201;28;20108;-67
2021/03/30 05:00:26;;;;;;;11.23;6.43;;;;;;;4.68;75.89;97222.78;5050377;28;20032;-67
2021/03/30 05:02:52;;;;;;;9.80;6.43;;;;;;;4.67;75.23;97219.34;5052915;28;20066;-67
2021/03/30 05:05:18;;;;;;;9.93;6.75;;;;;;;4.62;76.56;97217.84;5057622;28;20033;-66
2021/03/30 05:07:43;;;;;;;8.77;6.10;;;;;;;4.59;76.16;97226.63;5049589;28;20039;-66
2021/03/30 05:10:10;;;;;;;6.45;5.85;;;;;;;4.53;76.58;97222.56;5050957;28;20099;-66
2021/03/30 05:12:35;;;;;;;8.20;6.43;;;;;;;4.49;76.11;97220.97;5054062;28;20119;-67
2021/03/30 05:15:01;;;;;;;10.13;6.70;;;;;;;4.48;76.26;97229.72;5055445;28;20036;-67
2021/03/30 05:17:26;;;;;;;11.65;7.13;;;;;;;4.45;76.81;97229.84;5053493;28;20033;-67
2021/03/30 05:19:52;;;;;;;14.25;7.10;;;;;;;4.45;76.46;97235.06;5050610;28;20032;-67
2021/03/30 05:22:17;;;;;;;14.43;7.85;;;;;;;4.44;76.40;97229.03;5051431;28;20036;-67
2021/03/30 05:24:43;;;;;;;16.67;9.20;;;;;;;4.43;77.06;97226.47;5048317;28;20039;-67
2021/03/30 05:27:09;;;;;;;10.95;7.53;;;;;;;4.44;76.58;97230.75;5049390;28;20033;-67
2021/03/30 05:29:43;;;;;;;11.88;7.13;;;;;;;4.44;77.08;97229.03;5047997;28;20031;-67
2021/03/30 05:32:18;;;;;;;11.75;6.57;;;;;;;4.46;77.83;97231.53;5049933;28;20092;-67
2021/03/30 05:34:44;;;;;;;13.23;6.22;;;;;;;4.47;76.94;97235.84;5052632;28;20024;-66
2021/03/30 05:37:10;;;;;;;10.43;6.80;;;;;;;4.47;76.89;97238.44;5054687;28;20043;-67
2021/03/30 05:39:36;;;;;;;8.85;6.82;;;;;;;4.52;76.52;97240.88;5051413;28;20492;-66
2021/03/30 05:42:03;;;;;;;8.43;6.63;;;;;;;4.51;76.47;97236.56;5049587;28;20029;-66
2021/03/30 05:44:29;;;;;;;15.80;8.15;;;;;;;4.55;76.76;97244.22;5046307;28;20067;-66
2021/03/30 05:49:29;;;;;;;14.52;7.50;;;;;;;4.55;76.73;97245.94;5051207;28;20033;-65
2021/03/30 05:51:57;;;;;;;11.07;8.02;;;;;;;4.57;76.78;97250.19;5047936;28;20032;-65
2021/03/30 05:54:25;;;;;;;10.02;7.80;;;;;;;4.62;76.99;97251.75;5051114;28;20033;-63
2021/03/30 05:56:52;;;;;;;15.63;8.68;;;;;;;4.58;76.79;97254.50;5046799;28;20036;-64
2021/03/30 05:59:20;;;;;;;15.98;7.70;;;;;;;4.63;77.38;97254.28;5051529;28;20029;-63
2021/03/30 06:01:49;;;;;;;9.85;7.32;;;;;;;4.67;77.07;97255.00;5047814;28;20033;-61
2021/03/30 06:04:16;;;;;;;13.02;7.50;;;;;;;4.70;77.07;97249.66;5052311;28;20029;-61
2021/03/30 06:06:41;;;;;;;11.77;9.35;;;;;;;4.72;77.03;97250.44;5045724;28;20040;-61
2021/03/30 06:09:07;;;;;;;12.90;9.00;;;;;;;4.76;76.46;97252.00;5049533;28;20033;-63
2021/03/30 06:11:33;;;;;;;19.35;8.43;;;;;;;4.78;77.08;97258.00;5046888;28;20033;-63
2021/03/30 06:13:59;;;;;;;16.25;9.52;;;;;;;4.82;76.60;97251.72;5049966;28;20033;-65
2021/03/30 06:16:43;;;;;;;15.23;8.73;;;;;;;4.86;76.35;97250.69;5050523;28;20063;-64
2021/03/30 06:19:13;;;;;;;19.98;9.98;;;;;;;4.85;76.43;97264.63;5048584;28;20032;-64
2021/03/30 06:21:47;;;;;;;26.83;9.98;;;;;;;4.91;76.49;97262.66;5048237;28;20032;-59
2021/03/30 06:24:21;;;;;;;16.40;10.35;;;;;;;4.96;76.03;97252.88;5053008;28;20362;-60
2021/03/30 06:26:56;;;;;;;11.85;9.48;;;;;;;5.00;76.54;97257.88;5051409;28;20025;-60
2021/03/30 06:29:38;;;;;;;30.63;10.13;;;;;;;5.05;76.39;97260.31;5053351;28;20017;-59
2021/03/30 06:32:09;;;;;;;14.52;9.88;;;;;;;5.10;77.04;97252.28;5051076;28;20036;-60
2021/03/30 06:34:36;;;;;;;30.23;11.32;;;;;;;5.15;76.78;97256.34;5052008;28;20021;-60
2021/03/30 06:37:21;;;;;;;19.88;12.77;;;;;;;5.15;76.78;97253.72;5052939;28;20228;-60
2021/03/30 06:39:47;;;;;;;15.80;13.23;;;;;;;5.24;76.57;97255.06;5052938;28;20044;-59
2021/03/30 06:42:28;;;;;;;21.88;12.95;;;;;;;5.30;76.95;97254.81;5052608;28;20112;-57
2021/03/30 06:44:53;;;;;;;22.00;12.48;;;;;;;5.36;75.85;97258.88;5057034;28;20017;-59
2021/03/30 06:47:22;;;;;;;13.43;11.27;;;;;;;5.44;75.89;97261.16;5054735;28;20039;-57
2021/03/30 06:50:02;;;;;;;20.27;13.30;;;;;;;5.52;76.13;97255.56;5047953;28;20602;-58
2021/03/30 06:52:33;;;;;;;25.13;14.15;;;;;;;5.59;75.58;97249.13;5052668;28;20021;-58
2021/03/30 06:55:09;;;;;;;26.02;14.60;;;;;;;5.56;76.12;97247.53;5056426;28;20079;-59
2021/03/30 06:57:43;;;;;;;25.13;15.07;;;;;;;5.59;76.54;97254.34;5055877;28;20096;-58
2021/03/30 07:00:19;;;;;;;29.83;22.98;;;;;;;5.72;75.67;97245.03;5056230;28;20453;-58
2021/03/30 07:02:51;;;;;;;40.53;27.15;;;;;;;5.85;75.28;97254.88;5053766;28;20028;-59
2021/03/30 07:05:25;;;;;;;34.95;23.38;;;;;;;6.14;74.83;97244.81;5057988;28;20519;-60
2021/03/30 07:08:01;;;;;;;22.13;14.68;;;;;;;7.40;71.57;97243.56;5056412;28;20032;-59
2021/03/30 07:10:27;;;;;;;10.98;8.82;;;;;;;8.72;66.63;97238.69;5053462;28;20041;-60
2021/03/30 07:12:54;;;;;;;20.92;6.57;;;;;;;9.82;61.12;97236.31;5054093;28;20056;-59
2021/03/30 07:15:22;;;;;;;8.82;5.10;;;;;;;11.02;57.80;97229.28;5051028;28;20021;-60
2021/03/30 07:17:57;;;;;;;19.27;8.38;;;;;;;12.03;55.88;97232.72;5053304;28;20035;-60
2021/03/30 07:20:23;;;;;;;10.95;6.60;;;;;;;12.63;53.87;97229.16;5053809;28;20033;-60
2021/03/30 07:22:50;;;;;;;4.82;4.35;;;;;;;13.48;49.02;97235.00;5056968;28;20104;-61
2021/03/30 07:25:20;;;;;;;9.05;4.28;;;;;;;14.06;48.35;97225.97;5051650;28;20025;-60
2021/03/30 07:27:53;;;;;;;3.67;3.38;;;;;;;14.53;46.21;97226.47;5055433;28;20029;-60
2021/03/30 07:30:21;;;;;;;6.72;3.80;;;;;;;14.78;43.80;97224.41;5054972;28;20060;-60
2021/03/30 07:33:14;;;;;;;3.72;3.42;;;;;;;15.16;43.03;97217.63;5053012;28;20033;-63
2021/03/30 07:35:40;;;;;;;5.35;3.97;;;;;;;15.52;43.65;97219.00;5055256;28;20099;-63
2021/03/30 07:38:12;;;;;;;14.75;5.55;;;;;;;16.10;43.71;97217.44;5052633;28;20056;-64
2021/03/30 07:40:40;;;;;;;18.17;7.20;;;;;;;16.02;44.28;97218.13;5053192;28;20025;-65
2021/03/30 07:43:13;;;;;;;12.77;5.57;;;;;;;16.39;45.64;97211.28;5054900;28;20079;-62
2021/03/30 07:45:42;;;;;;;8.13;4.25;;;;;;;16.12;44.25;97228.75;5049323;28;20021;-62
2021/03/30 07:48:13;;;;;;;8.50;3.63;;;;;;;16.28;43.64;97223.75;5047546;28;20139;-62
2021/03/30 07:50:56;;;;;;;5.03;3.58;;;;;;;15.91;46.20;97235.03;5050386;28;20151;-62
2021/03/30 07:53:44;;;;;;;6.03;3.50;;;;;;;16.04;43.24;97227.66;5048829;28;20032;-62
2021/03/30 07:56:38;;;;;;;9.63;3.70;;;;;;;16.48;42.13;97223.72;5053400;28;20028;-61
2021/03/30 07:59:04;;;;;;;5.63;3.35;;;;;;;16.51;41.60;97219.94;5051347;28;20037;-61
2021/03/30 08:01:32;;;;;;;7.50;3.42;;;;;;;16.72;39.96;97214.47;5054517;28;20021;-61
2021/03/30 08:04:00;;;;;;;8.65;3.60;;;;;;;16.45;40.26;97216.88;5049066;28;20051;-61
2021/03/30 08:06:30;;;;;;;5.72;3.90;;;;;;;17.10;38.93;97220.66;5053739;28;20063;-61
2021/03/30 08:09:01;;;;;;;6.82;3.70;;;;;;;17.18;38.16;97220.78;5046747;28;20399;-62
2021/03/30 08:11:39;;;;;;;6.38;3.10;;;;;;;17.33;37.63;97212.28;5051231;28;20496;-62
2021/03/30 08:14:06;;;;;;;4.68;3.08;;;;;;;17.26;37.87;97220.06;5053810;28;20115;-62
2021/03/30 08:16:34;;;;;;;5.32;2.83;;;;;;;17.22;38.62;97220.47;5055209;28;20025;-62
2021/03/30 08:19:05;;;;;;;6.53;3.08;;;;;;;17.03;37.58;97222.22;5052602;28;20029;-62
2021/03/30 08:21:55;;;;;;;5.13;2.95;;;;;;;17.01;37.54;97225.03;5054335;28;20032;-62
2021/03/30 08:24:25;;;;;;;2.92;2.72;;;;;;;17.61;36.86;97212.31;5045376;28;20535;-62
2021/03/30 08:26:51;;;;;;;3.78;2.70;;;;;;;17.92;35.88;97211.97;5048640;28;20477;-60
2021/03/30 08:29:39;;;;;;;4.70;3.35;;;;;;;18.03;36.07;97209.13;5047069;28;20017;-60
2021/03/30 08:32:05;;;;;;;6.63;3.28;;;;;;;17.47;38.77;97206.50;5042441;28;20528;-61
2021/03/30 08:34:42;;;;;;;4.85;3.13;;;;;;;17.64;38.16;97211.16;5048734;28;20050;-60
2021/03/30 08:37:10;;;;;;;4.80;3.50;;;;;;;17.85;36.78;97205.56;5050067;28;20499;-60
2021/03/30 08:39:37;;;;;;;5.05;3.38;;;;;;;18.43;35.68;97204.28;5045287;28;20021;-60
2021/03/30 08:42:10;;;;;;;6.57;3.30;;;;;;;18.73;34.80;97210.16;5048619;28;20025;-61
2021/03/30 08:44:40;;;;;;;5.40;3.60;;;;;;;18.82;34.96;97208.38;5046772;28;20067;-60
2021/03/30 08:47:07;;;;;;;9.18;2.83;;;;;;;19.26;34.12;97204.84;5047325;28;20457;-61
2021/03/30 08:49:42;;;;;;;8.45;3.60;;;;;;;19.58;33.36;97203.28;5053608;28;20056;-61
2021/03/30 08:52:15;;;;;;;5.95;3.60;;;;;;;19.60;32.93;97213.81;5049333;28;20430;-62
2021/03/30 08:54:54;;;;;;;7.63;3.90;;;;;;;19.73;33.10;97206.16;5052347;28;20041;-62
2021/03/30 08:57:30;;;;;;;6.75;3.50;;;;;;;19.95;33.26;97201.22;5049120;28;20048;-62
2021/03/30 08:59:56;;;;;;;8.45;2.95;;;;;;;19.80;34.39;97202.84;5052459;28;20021;-61
2021/03/30 09:02:24;;;;;;;7.03;2.90;;;;;;;19.84;32.85;97206.88;5053519;28;20086;-62
2021/03/30 09:04:50;;;;;;;8.48;3.53;;;;;;;20.35;32.01;97204.13;5046828;28;20047;-62
2021/03/30 09:07:16;;;;;;;7.35;3.92;;;;;;;20.64;31.09;97202.78;5053688;28;20025;-62
2021/03/30 09:09:42;;;;;;;11.43;6.57;;;;;;;20.67;30.45;97197.06;5050288;28;20043;-62
2021/03/30 09:12:17;;;;;;;9.65;3.55;;;;;;;20.93;28.93;97200.59;5052774;28;20029;-63
2021/03/30 09:15:04;;;;;;;5.35;3.25;;;;;;;21.36;27.75;97200.28;5051922;28;20025;-62
2021/03/30 09:17:29;;;;;;;6.78;3.10;;;;;;;21.14;27.85;97189.31;5051400;28;20039;-62
2021/03/30 09:19:56;;;;;;;4.40;3.10;;;;;;;21.43;28.82;97202.09;5052841;28;20036;-62
2021/03/30 09:22:29;;;;;;;3.60;2.70;;;;;;;22.15;25.54;97196.69;5054469;28;20032;-62
2021/03/30 09:27:33;;;;;;;5.63;2.72;;;;;;;22.07;25.25;97194.06;5049711;28;20401;-62
2021/03/30 09:30:00;;;;;;;6.45;3.03;;;;;;;21.61;26.47;97195.66;5051077;28;20090;-61
2021/03/30 09:32:29;;;;;;;3.67;2.83;;;;;;;21.57;26.89;97192.47;5047575;28;20492;-61
2021/03/30 09:35:12;;;;;;;4.18;3.00;;;;;;;22.07;24.92;97192.22;5048291;28;20051;-61
2021/03/30 09:37:48;;;;;;;7.53;3.25;;;;;;;21.29;26.58;97190.25;5051408;28;20034;-63
2021/03/30 09:40:21;;;;;;;7.05;2.97;;;;;;;21.45;26.54;97185.84;5045065;28;20393;-62
2021/03/30 09:42:47;;;;;;;6.65;2.80;;;;;;;22.49;23.37;97187.41;5049232;28;20055;-63
2021/03/30 09:45:15;;;;;;;8.57;2.80;;;;;;;21.65;24.27;97177.38;5045103;28;20033;-62
2021/03/30 09:47:42;;;;;;;6.43;3.17;;;;;;;21.45;24.91;97172.47;5047906;28;20036;-62
2021/03/30 09:50:09;;;;;;;8.38;3.00;;;;;;;21.41;25.09;97176.47;5046832;28;20040;-62
2021/03/30 09:52:37;;;;;;;7.93;4.13;;;;;;;21.58;24.45;97171.88;5049483;28;20025;-62
2021/03/30 09:55:04;;;;;;;11.52;3.05;;;;;;;21.58;24.90;97169.22;5050366;28;20121;-63
2021/03/30 09:57:32;;;;;;;9.80;2.92;;;;;;;22.18;24.09;97165.00;5052456;28;20086;-60
2021/03/30 09:59:59;;;;;;;8.20;3.22;;;;;;;22.23;24.57;97160.91;5052217;28;20040;-59
2021/03/30 10:02:28;;;;;;;11.30;3.38;;;;;;;21.77;25.52;97156.38;5050490;28;20029;-59
2021/03/30 10:04:56;;;;;;;5.20;3.05;;;;;;;22.54;24.05;97165.38;5047967;28;20028;-59
2021/03/30 10:07:23;;;;;;;6.38;3.45;;;;;;;22.39;23.47;97160.78;5049331;28;20033;-59
2021/03/30 10:10:02;;;;;;;9.50;3.38;;;;;;;22.55;23.38;97165.19;5052378;28;20028;-59
2021/03/30 10:12:32;;;;;;;6.15;2.83;;;;;;;23.18;22.88;97155.97;5050404;28;20033;-59
2021/03/30 10:14:59;;;;;;;6.07;3.10;;;;;;;23.41;21.38;97155.91;5049705;28;20507;-59
2021/03/30 10:17:26;;;;;;;7.35;3.08;;;;;;;23.01;22.22;97150.81;5057441;28;20029;-59
2021/03/30 10:19:53;;;;;;;9.07;3.22;;;;;;;23.10;22.48;97148.88;5056466;28;20052;-59
2021/03/30 10:22:26;;;;;;;9.82;3.08;;;;;;;23.08;23.02;97150.06;5054190;28;20388;-59
2021/03/30 10:25:17;;;;;;;6.15;3.10;;;;;;;22.74;22.33;97155.78;5053218;28;20037;-60
2021/03/30 10:27:52;;;;;;;5.00;3.10;;;;;;;22.50;21.66;97143.44;5051204;28;20037;-60
2021/03/30 10:30:27;;;;;;;10.05;3.60;;;;;;;22.43;22.89;97142.47;5051491;28;20056;-60
2021/03/30 10:32:53;;;;;;;6.57;3.05;;;;;;;22.88;23.35;97137.19;5048060;28;20048;-61
2021/03/30 10:35:18;;;;;;;7.65;2.78;;;;;;;23.00;21.60;97133.03;5056685;28;20040;-60
2021/03/30 10:37:45;;;;;;;5.85;3.00;;;;;;;23.15;22.34;97124.97;5060130;28;20162;-61
2021/03/30 10:40:12;;;;;;;3.83;3.13;;;;;;;23.06;24.15;97123.38;5052623;28;20033;-60
2021/03/30 10:42:40;;;;;;;11.98;3.42;;;;;;;22.72;23.04;97127.47;5058028;28;20522;-60
2021/03/30 10:45:08;;;;;;;12.02;3.08;;;;;;;22.78;23.07;97123.22;5055642;28;20447;-60
2021/03/30 10:47:39;;;;;;;5.30;3.45;;;;;;;22.93;22.96;97121.34;5054923;28;20025;-60
2021/03/30 10:50:12;;;;;;;9.40;3.30;;;;;;;23.92;21.49;97119.22;5055641;28;20033;-60
2021/03/30 10:52:39;;;;;;;8.05;3.40;;;;;;;23.95;19.92;97120.69;5055093;28;20029;-61
2021/03/30 10:55:16;;;;;;;6.72;3.30;;;;;;;23.74;21.69;97123.16;5050499;28;20400;-61
2021/03/30 10:57:48;;;;;;;13.25;3.40;;;;;;;24.15;21.21;97113.69;5053599;28;20493;-61
2021/03/30 11:00:16;;;;;;;9.35;3.25;;;;;;;24.67;19.91;97099.97;5053722;28;20035;-61
2021/03/30 11:02:42;;;;;;;8.07;3.78;;;;;;;24.27;20.46;97110.44;5052855;28;20112;-61
2021/03/30 11:05:09;;;;;;;7.60;3.33;;;;;;;23.82;22.30;97099.91;5047748;28;20113;-61
2021/03/30 11:07:35;;;;;;;5.95;3.00;;;;;;;24.72;19.73;97092.13;5051167;28;20112;-60
2021/03/30 11:10:02;;;;;;;6.75;3.55;;;;;;;24.43;21.16;97087.81;5054438;28;20111;-60
2021/03/30 11:12:28;;;;;;;9.15;3.50;;;;;;;24.08;22.76;97096.63;5053546;28;20028;-60
2021/03/30 11:14:53;;;;;;;9.93;3.67;;;;;;;24.46;20.67;97087.41;5054342;28;20417;-60
2021/03/30 11:17:19;;;;;;;5.35;3.20;;;;;;;24.34;20.20;97072.81;5053385;28;20028;-60
2021/03/30 11:19:44;;;;;;;8.10;3.63;;;;;;;24.68;20.48;97079.28;5053808;28;20170;-60
2021/03/30 11:22:10;;;;;;;5.30;3.15;;;;;;;25.00;20.06;97074.28;5053046;28;20035;-61
2021/03/30 11:24:41;;;;;;;6.55;3.05;;;;;;;24.80;20.52;97071.50;5055786;28;20029;-61
2021/03/30 11:27:08;;;;;;;7.13;4.10;;;;;;;24.04;21.30;97068.47;5054641;28;20029;-60
2021/03/30 11:32:32;;;;;;;5.18;3.08;;;;;;;23.97;21.30;97064.88;5051355;28;20025;-61
2021/03/30 11:39:52;;;;;;;8.30;3.10;;;;;;;24.88;20.35;97053.31;5055542;28;20098;-61
2021/03/30 11:42:18;;;;;;;11.45;4.03;;;;;;;25.15;21.54;97056.13;5049386;28;20576;-61
2021/03/30 11:44:44;;;;;;;7.45;3.78;;;;;;;25.12;21.41;97042.22;5050985;28;20103;-61
2021/03/30 11:47:10;;;;;;;7.15;3.60;;;;;;;25.15;20.63;97041.81;5051165;28;20039;-61
2021/03/30 11:49:36;;;;;;;5.57;3.72;;;;;;;25.16;19.76;97038.91;5049076;28;20021;-62
2021/03/30 11:52:03;;;;;;;10.18;3.65;;;;;;;25.05;20.16;97044.06;5046394;28;20083;-61
2021/03/30 11:54:29;;;;;;;5.88;3.13;;;;;;;25.21;20.18;97034.78;5047201;28;20029;-61
2021/03/30 11:56:55;;;;;;;5.28;3.03;;;;;;;25.63;19.56;97032.84;5046249;28;20029;-61